Acworth, Georgia
Current Conditions -  °F | °C
As of 5:47 PM on Saturday 25 Oct 2014 (Local Time) from KRYY Reporting Station
Clear Clear  
Wind Chill: 72°   Ceiling: Unl
Heat Index: 72°   Visibility: 10mi
Dew Point: 43°   Wind: 5mph
Humidity: 35%   Direction: 320°NW
Pressure: 30.03"   Gusts: NA
Location:  34.06°N, 84.68°W
Report Text: KRYY 252147Z 32004KT 10SM SKC 22/06 A3003
Loading
Personal Weather Stations






























Interactive Weather Map
Tropical Storm Tracking
New forecast layout! Learn more

10-Day Weather Forecast

Advertisements
Track Severe Weather on mobile